ARG1671 SAZS-SABE
Flight info
| Callsign | ARG1671 |
|---|---|
| Flight time | 1h 42m |
| Altitude | 37000 |
| Route | LIMAY2C LIMAY UW26 EGUNO UZ109 ISMIL UT655 ASADA ASADA8Q |
| Aircraft | B738/M-SDE2E3FGHIRWXY/LB1 |
Departure
| Time | 2026-04-25 20:55 |
|---|---|
| Airport | Teniente Luis Candelaria International Airport (SAZS) |
Arrival
| Time | 2026-04-25 22:37 |
|---|---|
| Airport | Aeroparque Jorge Newbery (SABE) |
| Time | Latitude | Longitude | Altitude | Speed | Heading |
|---|---|---|---|---|---|
| 2026-04-25 20:30 | -41.14640 | -71.16204 | 2746 ft | 0 kts | 40° |
| 2026-04-25 20:43 | -41.14640 | -71.16205 | 2747 ft | 2 kts | 40° |
| 2026-04-25 20:43 | -41.14653 | -71.16219 | 2747 ft | 2 kts | 40° |
| 2026-04-25 20:43 | -41.14665 | -71.16233 | 2748 ft | 2 kts | 40° |
| 2026-04-25 20:43 | -41.14678 | -71.16246 | 2747 ft | 2 kts | 40° |
| 2026-04-25 20:44 | -41.14688 | -71.16258 | 2749 ft | 0 kts | 40° |
| 2026-04-25 20:47 | -41.14687 | -71.16243 | 2750 ft | 3 kts | 99° |
| 2026-04-25 20:47 | -41.14703 | -71.16230 | 2747 ft | 3 kts | 168° |
| 2026-04-25 20:47 | -41.14740 | -71.16234 | 2747 ft | 9 kts | 191° |
| 2026-04-25 20:47 | -41.14785 | -71.16223 | 2747 ft | 4 kts | 148° |
| 2026-04-25 20:48 | -41.14797 | -71.16203 | 2749 ft | 2 kts | 122° |
| 2026-04-25 20:48 | -41.14800 | -71.16194 | 2747 ft | 0 kts | 120° |
| 2026-04-25 20:48 | -41.14805 | -71.16183 | 2747 ft | 4 kts | 120° |
| 2026-04-25 20:48 | -41.14824 | -71.16135 | 2749 ft | 8 kts | 115° |
| 2026-04-25 20:49 | -41.14857 | -71.16040 | 2747 ft | 15 kts | 115° |
| 2026-04-25 20:49 | -41.14891 | -71.15943 | 2747 ft | 9 kts | 115° |
| 2026-04-25 20:49 | -41.14914 | -71.15876 | 2747 ft | 7 kts | 115° |
| 2026-04-25 20:49 | -41.14934 | -71.15820 | 2747 ft | 7 kts | 114° |
| 2026-04-25 20:50 | -41.14960 | -71.15743 | 2747 ft | 12 kts | 115° |
| 2026-04-25 20:50 | -41.15006 | -71.15612 | 2747 ft | 19 kts | 115° |
| 2026-04-25 20:50 | -41.15052 | -71.15482 | 2748 ft | 12 kts | 115° |
| 2026-04-25 20:50 | -41.15088 | -71.15378 | 2746 ft | 13 kts | 115° |
| 2026-04-25 20:51 | -41.15124 | -71.15274 | 2748 ft | 12 kts | 115° |
| 2026-04-25 20:51 | -41.15160 | -71.15172 | 2747 ft | 12 kts | 114° |
| 2026-04-25 20:51 | -41.15197 | -71.15064 | 2748 ft | 14 kts | 114° |
| 2026-04-25 20:51 | -41.15241 | -71.14938 | 2748 ft | 16 kts | 115° |
| 2026-04-25 20:52 | -41.15277 | -71.14836 | 2747 ft | 8 kts | 116° |
| 2026-04-25 20:52 | -41.15295 | -71.14786 | 2747 ft | 9 kts | 116° |
| 2026-04-25 20:52 | -41.15328 | -71.14689 | 2748 ft | 9 kts | 114° |
| 2026-04-25 20:52 | -41.15355 | -71.14609 | 2749 ft | 11 kts | 114° |
| 2026-04-25 20:53 | -41.15391 | -71.14508 | 2748 ft | 12 kts | 119° |
| 2026-04-25 20:53 | -41.15452 | -71.14476 | 2747 ft | 2 kts | 198° |
| 2026-04-25 20:54 | -41.15458 | -71.14479 | 2747 ft | 4 kts | 198° |
| 2026-04-25 20:54 | -41.15510 | -71.14507 | 2748 ft | 11 kts | 205° |
| 2026-04-25 20:54 | -41.15530 | -71.14551 | 2747 ft | 8 kts | 269° |
| 2026-04-25 20:54 | -41.15487 | -71.14692 | 2749 ft | 34 kts | 295° |
| 2026-04-25 20:55 | -41.15281 | -71.15285 | 2752 ft | 106 kts | 295° |
| 2026-04-25 20:55 | -41.14885 | -71.16379 | 3038 ft | 144 kts | 295° |
| 2026-04-25 20:55 | -41.14468 | -71.17589 | 4004 ft | 147 kts | 292° |
| 2026-04-25 20:55 | -41.14049 | -71.18864 | 4863 ft | 158 kts | 291° |
| 2026-04-25 20:56 | -41.13561 | -71.20319 | 5145 ft | 186 kts | 291° |
| 2026-04-25 20:56 | -41.12998 | -71.21996 | 5439 ft | 208 kts | 291° |
| 2026-04-25 20:56 | -41.12396 | -71.23779 | 6080 ft | 214 kts | 291° |
| 2026-04-25 20:56 | -41.11805 | -71.25524 | 6879 ft | 212 kts | 290° |
| 2026-04-25 20:57 | -41.11202 | -71.27309 | 7640 ft | 212 kts | 289° |
| 2026-04-25 20:57 | -41.10599 | -71.29093 | 8431 ft | 211 kts | 288° |
| 2026-04-25 20:57 | -41.09967 | -71.30855 | 9206 ft | 216 kts | 295° |
| 2026-04-25 20:57 | -41.08843 | -71.32292 | 9860 ft | 235 kts | 313° |
| 2026-04-25 20:58 | -41.07321 | -71.33281 | 10187 ft | 253 kts | 329° |
| 2026-04-25 20:58 | -41.05482 | -71.33639 | 10667 ft | 286 kts | 348° |
| 2026-04-25 20:58 | -41.04096 | -71.33407 | 10759 ft | 322 kts | 5° |
| 2026-04-25 20:58 | -41.01244 | -71.31371 | 11249 ft | 371 kts | 32° |
| 2026-04-25 20:59 | -40.99965 | -71.29820 | 11663 ft | 384 kts | 46° |
| 2026-04-25 20:59 | -40.98503 | -71.26813 | 12454 ft | 392 kts | 62° |
| 2026-04-25 20:59 | -40.97349 | -71.23517 | 13262 ft | 397 kts | 66° |
| 2026-04-25 20:59 | -40.96265 | -71.20130 | 14049 ft | 401 kts | 67° |
| 2026-04-25 21:00 | -40.95157 | -71.16729 | 14787 ft | 405 kts | 66° |
| 2026-04-25 21:00 | -40.94392 | -71.14472 | 15293 ft | 407 kts | 66° |
| 2026-04-25 21:00 | -40.91504 | -71.06462 | 17064 ft | 416 kts | 65° |
| 2026-04-25 21:01 | -40.90215 | -71.03025 | 17851 ft | 419 kts | 65° |
| 2026-04-25 21:01 | -40.88908 | -70.99567 | 18556 ft | 423 kts | 65° |
| 2026-04-25 21:01 | -40.87578 | -70.96062 | 19127 ft | 429 kts | 65° |
| 2026-04-25 21:01 | -40.86232 | -70.92515 | 19695 ft | 434 kts | 66° |
| 2026-04-25 21:02 | -40.84871 | -70.88935 | 20287 ft | 439 kts | 66° |
| 2026-04-25 21:02 | -40.83495 | -70.85314 | 20865 ft | 443 kts | 66° |
| 2026-04-25 21:02 | -40.82106 | -70.81660 | 21451 ft | 447 kts | 66° |
| 2026-04-25 21:02 | -40.80700 | -70.77967 | 21982 ft | 453 kts | 66° |
| 2026-04-25 21:03 | -40.79278 | -70.74237 | 22527 ft | 457 kts | 66° |
| 2026-04-25 21:03 | -40.77860 | -70.70519 | 23048 ft | 462 kts | 67° |
| 2026-04-25 21:03 | -40.76404 | -70.66710 | 23597 ft | 467 kts | 67° |
| 2026-04-25 21:03 | -40.74861 | -70.62907 | 24035 ft | 473 kts | 61° |
| 2026-04-25 21:04 | -40.72929 | -70.59366 | 24522 ft | 478 kts | 50° |
| 2026-04-25 21:04 | -40.70675 | -70.56133 | 25037 ft | 480 kts | 46° |
| 2026-04-25 21:04 | -40.68356 | -70.52944 | 25484 ft | 483 kts | 46° |
| 2026-04-25 21:04 | -40.66021 | -70.49724 | 25910 ft | 488 kts | 47° |
| 2026-04-25 21:05 | -40.63707 | -70.46444 | 26346 ft | 491 kts | 50° |
| 2026-04-25 21:05 | -40.61640 | -70.42854 | 26760 ft | 492 kts | 58° |
| 2026-04-25 21:05 | -40.59762 | -70.39077 | 27243 ft | 494 kts | 60° |
| 2026-04-25 21:05 | -40.57926 | -70.35254 | 27686 ft | 496 kts | 60° |
| 2026-04-25 21:06 | -40.56086 | -70.31396 | 28080 ft | 500 kts | 60° |
| 2026-04-25 21:06 | -40.54222 | -70.27508 | 28470 ft | 503 kts | 60° |
| 2026-04-25 21:06 | -40.52333 | -70.23612 | 28854 ft | 506 kts | 59° |
| 2026-04-25 21:06 | -40.51069 | -70.21027 | 29114 ft | 508 kts | 59° |
| 2026-04-25 21:07 | -40.48492 | -70.15799 | 29621 ft | 511 kts | 59° |
| 2026-04-25 21:07 | -40.46572 | -70.11927 | 29997 ft | 514 kts | 58° |
| 2026-04-25 21:07 | -40.44611 | -70.07986 | 30291 ft | 516 kts | 58° |
| 2026-04-25 21:07 | -40.42640 | -70.04030 | 30643 ft | 517 kts | 58° |
| 2026-04-25 21:08 | -40.40667 | -70.00077 | 31042 ft | 516 kts | 58° |
| 2026-04-25 21:08 | -40.38698 | -69.96133 | 31461 ft | 515 kts | 58° |
| 2026-04-25 21:08 | -40.36729 | -69.92191 | 31817 ft | 516 kts | 57° |
| 2026-04-25 21:08 | -40.34758 | -69.88250 | 32185 ft | 515 kts | 57° |
| 2026-04-25 21:09 | -40.30868 | -69.80482 | 33106 ft | 510 kts | 57° |
| 2026-04-25 21:09 | -40.28928 | -69.76614 | 33596 ft | 506 kts | 57° |
| 2026-04-25 21:09 | -40.26996 | -69.72769 | 34034 ft | 503 kts | 56° |
| 2026-04-25 21:10 | -40.25073 | -69.68945 | 34346 ft | 503 kts | 56° |
| 2026-04-25 21:10 | -40.23141 | -69.65110 | 34568 ft | 504 kts | 56° |
| 2026-04-25 21:10 | -40.21203 | -69.61266 | 34768 ft | 506 kts | 56° |
| 2026-04-25 21:10 | -40.19256 | -69.57409 | 35010 ft | 507 kts | 56° |
| 2026-04-25 21:11 | -40.17339 | -69.53616 | 35267 ft | 507 kts | 55° |
| 2026-04-25 21:11 | -40.15391 | -69.49768 | 35498 ft | 507 kts | 55° |
| 2026-04-25 21:11 | -40.13439 | -69.45916 | 35697 ft | 509 kts | 55° |
| 2026-04-25 21:11 | -40.11481 | -69.42055 | 35911 ft | 510 kts | 55° |
| 2026-04-25 21:12 | -40.09519 | -69.38193 | 36147 ft | 510 kts | 54° |
| 2026-04-25 21:12 | -40.07557 | -69.34337 | 36403 ft | 510 kts | 54° |
| 2026-04-25 21:12 | -40.05590 | -69.30473 | 36646 ft | 510 kts | 54° |
| 2026-04-25 21:12 | -40.04289 | -69.27919 | 36779 ft | 511 kts | 54° |
| 2026-04-25 21:13 | -40.01643 | -69.22735 | 36979 ft | 514 kts | 54° |
| 2026-04-25 21:13 | -39.99651 | -69.18840 | 36979 ft | 517 kts | 54° |
| 2026-04-25 21:13 | -39.95646 | -69.11019 | 36984 ft | 518 kts | 54° |
| 2026-04-25 21:14 | -39.91662 | -69.03253 | 36976 ft | 513 kts | 53° |
| 2026-04-25 21:14 | -39.87722 | -68.95595 | 36983 ft | 511 kts | 53° |
| 2026-04-25 21:15 | -39.83763 | -68.87919 | 36974 ft | 510 kts | 53° |
| 2026-04-25 21:15 | -39.79797 | -68.80251 | 36976 ft | 510 kts | 53° |
| 2026-04-25 21:16 | -39.75830 | -68.72598 | 36975 ft | 510 kts | 53° |
| 2026-04-25 21:16 | -39.71853 | -68.64945 | 36982 ft | 511 kts | 53° |
| 2026-04-25 21:17 | -39.67867 | -68.57292 | 36968 ft | 512 kts | 53° |
| 2026-04-25 21:17 | -39.63862 | -68.49620 | 36971 ft | 513 kts | 53° |
| 2026-04-25 21:18 | -39.59883 | -68.42017 | 36960 ft | 512 kts | 53° |
| 2026-04-25 21:18 | -39.55874 | -68.34374 | 36955 ft | 512 kts | 53° |
| 2026-04-25 21:19 | -39.51866 | -68.26752 | 36956 ft | 511 kts | 53° |
| 2026-04-25 21:19 | -39.47858 | -68.19149 | 36950 ft | 510 kts | 53° |
| 2026-04-25 21:20 | -39.44534 | -68.12857 | 36949 ft | 508 kts | 53° |
| 2026-04-25 21:20 | -39.39895 | -68.04095 | 36946 ft | 506 kts | 53° |
| 2026-04-25 21:21 | -39.35916 | -67.96600 | 36947 ft | 505 kts | 53° |
| 2026-04-25 21:21 | -39.31938 | -67.89126 | 36946 ft | 504 kts | 52° |
| 2026-04-25 21:22 | -39.27963 | -67.81673 | 36948 ft | 503 kts | 52° |
| 2026-04-25 21:22 | -39.23991 | -67.74244 | 36952 ft | 503 kts | 52° |
| 2026-04-25 21:23 | -39.20012 | -67.66818 | 36945 ft | 503 kts | 52° |
| 2026-04-25 21:23 | -39.16052 | -67.59446 | 36948 ft | 503 kts | 52° |
| 2026-04-25 21:24 | -39.12057 | -67.52026 | 36947 ft | 504 kts | 52° |
| 2026-04-25 21:24 | -39.08049 | -67.44598 | 36949 ft | 505 kts | 52° |
| 2026-04-25 21:25 | -39.04025 | -67.37159 | 36947 ft | 506 kts | 52° |
| 2026-04-25 21:25 | -38.99995 | -67.29724 | 36959 ft | 507 kts | 52° |
| 2026-04-25 21:26 | -38.95948 | -67.22274 | 36952 ft | 508 kts | 52° |
| 2026-04-25 21:26 | -38.91912 | -67.14863 | 36954 ft | 508 kts | 52° |
| 2026-04-25 21:27 | -38.87851 | -67.07424 | 36945 ft | 509 kts | 51° |
| 2026-04-25 21:27 | -38.83783 | -66.99988 | 36950 ft | 508 kts | 51° |
| 2026-04-25 21:28 | -38.79719 | -66.92576 | 36950 ft | 508 kts | 51° |
| 2026-04-25 21:28 | -38.75652 | -66.85177 | 36952 ft | 507 kts | 51° |
| 2026-04-25 21:29 | -38.71577 | -66.77780 | 36949 ft | 507 kts | 51° |
| 2026-04-25 21:29 | -38.67530 | -66.70450 | 36955 ft | 506 kts | 51° |
| 2026-04-25 21:30 | -38.63461 | -66.63096 | 36956 ft | 506 kts | 51° |
| 2026-04-25 21:30 | -38.60049 | -66.56944 | 36958 ft | 506 kts | 51° |
| 2026-04-25 21:31 | -38.55304 | -66.48407 | 36942 ft | 506 kts | 51° |
| 2026-04-25 21:31 | -38.51218 | -66.41073 | 36956 ft | 506 kts | 51° |
| 2026-04-25 21:32 | -38.47127 | -66.33747 | 36950 ft | 507 kts | 50° |
| 2026-04-25 21:32 | -38.43029 | -66.26425 | 36955 ft | 507 kts | 50° |
| 2026-04-25 21:33 | -38.38951 | -66.19156 | 36954 ft | 507 kts | 50° |
| 2026-04-25 21:33 | -38.34837 | -66.11838 | 36955 ft | 508 kts | 50° |
| 2026-04-25 21:34 | -38.30712 | -66.04517 | 36952 ft | 508 kts | 50° |
| 2026-04-25 21:34 | -38.26578 | -65.97197 | 36956 ft | 509 kts | 50° |
| 2026-04-25 21:35 | -38.22439 | -65.89883 | 36966 ft | 509 kts | 50° |
| 2026-04-25 21:35 | -38.18317 | -65.82617 | 36956 ft | 510 kts | 50° |
| 2026-04-25 21:36 | -38.14162 | -65.75307 | 36959 ft | 510 kts | 50° |
| 2026-04-25 21:36 | -38.10003 | -65.68006 | 36962 ft | 510 kts | 50° |
| 2026-04-25 21:37 | -38.07220 | -65.63132 | 36959 ft | 509 kts | 50° |
| 2026-04-25 21:37 | -38.01676 | -65.53440 | 36955 ft | 509 kts | 50° |
| 2026-04-25 21:38 | -37.97514 | -65.46184 | 36958 ft | 508 kts | 50° |
| 2026-04-25 21:38 | -37.93384 | -65.38999 | 36963 ft | 507 kts | 50° |
| 2026-04-25 21:39 | -37.89225 | -65.31779 | 36962 ft | 507 kts | 50° |
| 2026-04-25 21:39 | -37.85063 | -65.24571 | 36963 ft | 506 kts | 50° |
| 2026-04-25 21:40 | -37.80907 | -65.17387 | 36964 ft | 506 kts | 50° |
| 2026-04-25 21:40 | -37.76742 | -65.10205 | 36965 ft | 506 kts | 50° |
| 2026-04-25 21:41 | -37.72578 | -65.03039 | 36964 ft | 506 kts | 50° |
| 2026-04-25 21:41 | -37.68434 | -64.95925 | 36963 ft | 505 kts | 50° |
| 2026-04-25 21:42 | -37.64262 | -64.88775 | 36963 ft | 506 kts | 49° |
| 2026-04-25 21:42 | -37.60087 | -64.81636 | 36965 ft | 505 kts | 49° |
| 2026-04-25 21:43 | -37.55902 | -64.74497 | 36968 ft | 505 kts | 49° |
| 2026-04-25 21:43 | -37.51797 | -64.67508 | 36967 ft | 505 kts | 49° |
| 2026-04-25 21:44 | -37.47605 | -64.60387 | 36969 ft | 505 kts | 49° |
| 2026-04-25 21:45 | -37.41340 | -64.49769 | 36966 ft | 506 kts | 49° |
| 2026-04-25 21:45 | -37.37820 | -64.43816 | 36961 ft | 506 kts | 49° |
| 2026-04-25 21:46 | -37.33664 | -64.36748 | 36969 ft | 507 kts | 52° |
| 2026-04-25 21:46 | -37.30017 | -64.29126 | 36969 ft | 510 kts | 57° |
| 2026-04-25 21:47 | -37.26554 | -64.21334 | 36967 ft | 510 kts | 57° |
| 2026-04-25 21:47 | -37.23073 | -64.13579 | 36965 ft | 509 kts | 57° |
| 2026-04-25 21:48 | -37.19548 | -64.05870 | 36970 ft | 509 kts | 56° |
| 2026-04-25 21:48 | -37.16001 | -63.98181 | 36970 ft | 508 kts | 56° |
| 2026-04-25 21:49 | -37.12470 | -63.90552 | 36974 ft | 508 kts | 56° |
| 2026-04-25 21:49 | -37.08922 | -63.82894 | 36969 ft | 508 kts | 56° |
| 2026-04-25 21:50 | -37.05372 | -63.75245 | 36964 ft | 507 kts | 56° |
| 2026-04-25 21:50 | -37.01823 | -63.67616 | 36969 ft | 507 kts | 56° |
| 2026-04-25 21:51 | -36.98270 | -63.59995 | 36964 ft | 506 kts | 56° |
| 2026-04-25 21:51 | -36.94716 | -63.52391 | 36965 ft | 506 kts | 56° |
| 2026-04-25 21:52 | -36.91181 | -63.44844 | 36959 ft | 505 kts | 56° |
| 2026-04-25 21:52 | -36.87623 | -63.37265 | 36963 ft | 505 kts | 56° |
| 2026-04-25 21:53 | -36.84060 | -63.29695 | 36967 ft | 504 kts | 55° |
| 2026-04-25 21:53 | -36.80503 | -63.22153 | 36964 ft | 504 kts | 55° |
| 2026-04-25 21:54 | -36.76941 | -63.14618 | 36968 ft | 504 kts | 55° |
| 2026-04-25 21:54 | -36.73375 | -63.07092 | 36969 ft | 504 kts | 55° |
| 2026-04-25 21:55 | -36.69824 | -62.99614 | 36965 ft | 504 kts | 55° |
| 2026-04-25 21:55 | -36.66250 | -62.92104 | 36965 ft | 504 kts | 54° |
| 2026-04-25 21:56 | -36.62669 | -62.84597 | 36966 ft | 504 kts | 54° |
| 2026-04-25 21:56 | -36.59086 | -62.77102 | 36965 ft | 504 kts | 54° |
| 2026-04-25 21:57 | -36.55492 | -62.69601 | 36972 ft | 504 kts | 54° |
| 2026-04-25 21:57 | -36.51893 | -62.62106 | 36968 ft | 504 kts | 54° |
| 2026-04-25 21:58 | -36.48307 | -62.54655 | 36972 ft | 505 kts | 54° |
| 2026-04-25 21:58 | -36.44696 | -62.47168 | 36970 ft | 505 kts | 54° |
| 2026-04-25 21:59 | -36.41070 | -62.39667 | 36967 ft | 506 kts | 54° |
| 2026-04-25 21:59 | -36.37437 | -62.32169 | 36972 ft | 506 kts | 54° |
| 2026-04-25 22:00 | -36.31995 | -62.20967 | 36969 ft | 507 kts | 54° |
| 2026-04-25 22:00 | -36.28339 | -62.13463 | 36972 ft | 508 kts | 53° |
| 2026-04-25 22:01 | -36.24677 | -62.05962 | 36974 ft | 509 kts | 53° |
| 2026-04-25 22:01 | -36.21623 | -61.99720 | 36970 ft | 509 kts | 53° |
| 2026-04-25 22:02 | -36.17349 | -61.91001 | 36971 ft | 510 kts | 53° |
| 2026-04-25 22:02 | -36.13663 | -61.83497 | 36971 ft | 510 kts | 53° |
| 2026-04-25 22:03 | -36.09969 | -61.75995 | 36969 ft | 511 kts | 53° |
| 2026-04-25 22:03 | -36.06274 | -61.68494 | 36973 ft | 511 kts | 53° |
| 2026-04-25 22:04 | -36.02572 | -61.60988 | 36971 ft | 511 kts | 53° |
| 2026-04-25 22:04 | -35.98859 | -61.53477 | 36975 ft | 511 kts | 53° |
| 2026-04-25 22:05 | -35.95146 | -61.45983 | 36970 ft | 512 kts | 53° |
| 2026-04-25 22:05 | -35.91450 | -61.38535 | 36971 ft | 511 kts | 53° |
| 2026-04-25 22:06 | -35.87721 | -61.31039 | 36973 ft | 511 kts | 53° |
| 2026-04-25 22:06 | -35.84016 | -61.23557 | 36973 ft | 511 kts | 53° |
| 2026-04-25 22:07 | -35.80942 | -61.17335 | 36974 ft | 511 kts | 53° |
| 2026-04-25 22:07 | -35.76620 | -61.08606 | 36968 ft | 511 kts | 53° |
| 2026-04-25 22:08 | -35.72913 | -61.01145 | 36972 ft | 510 kts | 52° |
| 2026-04-25 22:08 | -35.69234 | -60.93757 | 36965 ft | 510 kts | 52° |
| 2026-04-25 22:09 | -35.67379 | -60.90038 | 36852 ft | 512 kts | 52° |
| 2026-04-25 22:09 | -35.65502 | -60.86285 | 36341 ft | 514 kts | 52° |
| 2026-04-25 22:09 | -35.63633 | -60.82545 | 35820 ft | 512 kts | 53° |
| 2026-04-25 22:09 | -35.61768 | -60.78815 | 35295 ft | 510 kts | 53° |
| 2026-04-25 22:10 | -35.59914 | -60.75111 | 34882 ft | 506 kts | 53° |
| 2026-04-25 22:10 | -35.58075 | -60.71438 | 34458 ft | 502 kts | 53° |
| 2026-04-25 22:10 | -35.56248 | -60.67795 | 34035 ft | 499 kts | 53° |
| 2026-04-25 22:10 | -35.54434 | -60.64186 | 33554 ft | 495 kts | 53° |
| 2026-04-25 22:11 | -35.52652 | -60.60643 | 33105 ft | 491 kts | 53° |
| 2026-04-25 22:11 | -35.50864 | -60.57093 | 32683 ft | 486 kts | 53° |
| 2026-04-25 22:11 | -35.49095 | -60.53583 | 32274 ft | 481 kts | 53° |
| 2026-04-25 22:11 | -35.47344 | -60.50113 | 31867 ft | 476 kts | 53° |
| 2026-04-25 22:12 | -35.45608 | -60.46677 | 31477 ft | 471 kts | 53° |
| 2026-04-25 22:12 | -35.43886 | -60.43272 | 31080 ft | 467 kts | 54° |
| 2026-04-25 22:12 | -35.42180 | -60.39902 | 30686 ft | 463 kts | 54° |
| 2026-04-25 22:12 | -35.41057 | -60.37686 | 30430 ft | 460 kts | 54° |
| 2026-04-25 22:13 | -35.38830 | -60.33295 | 29905 ft | 455 kts | 54° |
| 2026-04-25 22:13 | -35.37164 | -60.30014 | 29460 ft | 450 kts | 54° |
| 2026-04-25 22:13 | -35.35521 | -60.26779 | 29064 ft | 445 kts | 54° |
| 2026-04-25 22:13 | -35.33896 | -60.23581 | 28671 ft | 439 kts | 54° |
| 2026-04-25 22:14 | -35.32290 | -60.20425 | 28279 ft | 434 kts | 54° |
| 2026-04-25 22:14 | -35.30698 | -60.17301 | 27879 ft | 430 kts | 54° |
| 2026-04-25 22:14 | -35.29122 | -60.14209 | 27484 ft | 426 kts | 54° |
| 2026-04-25 22:14 | -35.27558 | -60.11147 | 27112 ft | 422 kts | 54° |
| 2026-04-25 22:15 | -35.26010 | -60.08116 | 26719 ft | 418 kts | 54° |
| 2026-04-25 22:15 | -35.24471 | -60.05107 | 26338 ft | 415 kts | 54° |
| 2026-04-25 22:15 | -35.22948 | -60.02131 | 25957 ft | 411 kts | 54° |
| 2026-04-25 22:16 | -35.19994 | -59.96366 | 25237 ft | 405 kts | 54° |
| 2026-04-25 22:16 | -35.18503 | -59.93459 | 24870 ft | 402 kts | 54° |
| 2026-04-25 22:16 | -35.17018 | -59.90566 | 24504 ft | 399 kts | 54° |
| 2026-04-25 22:16 | -35.15544 | -59.87698 | 24140 ft | 397 kts | 54° |
| 2026-04-25 22:17 | -35.14083 | -59.84856 | 23790 ft | 394 kts | 54° |
| 2026-04-25 22:17 | -35.12625 | -59.82023 | 23403 ft | 392 kts | 54° |
| 2026-04-25 22:17 | -35.11177 | -59.79212 | 22977 ft | 390 kts | 54° |
| 2026-04-25 22:17 | -35.09740 | -59.76422 | 22617 ft | 386 kts | 54° |
| 2026-04-25 22:18 | -35.08314 | -59.73658 | 22240 ft | 383 kts | 54° |
| 2026-04-25 22:18 | -35.06901 | -59.70919 | 21890 ft | 379 kts | 54° |
| 2026-04-25 22:18 | -35.05498 | -59.68203 | 21521 ft | 376 kts | 53° |
| 2026-04-25 22:18 | -35.04107 | -59.65513 | 21176 ft | 373 kts | 53° |
| 2026-04-25 22:19 | -35.02778 | -59.62846 | 20817 ft | 373 kts | 60° |
| 2026-04-25 22:19 | -35.01975 | -59.59829 | 20557 ft | 374 kts | 75° |
| 2026-04-25 22:19 | -35.01422 | -59.56738 | 20301 ft | 373 kts | 76° |
| 2026-04-25 22:19 | -35.00894 | -59.53625 | 20053 ft | 376 kts | 76° |
| 2026-04-25 22:20 | -35.00360 | -59.50487 | 19816 ft | 378 kts | 76° |
| 2026-04-25 22:20 | -34.99819 | -59.47366 | 19510 ft | 375 kts | 76° |
| 2026-04-25 22:20 | -34.99272 | -59.44265 | 19159 ft | 373 kts | 76° |
| 2026-04-25 22:20 | -34.98719 | -59.41179 | 18809 ft | 371 kts | 76° |
| 2026-04-25 22:21 | -34.98163 | -59.38106 | 18433 ft | 371 kts | 75° |
| 2026-04-25 22:21 | -34.97605 | -59.35036 | 18041 ft | 371 kts | 75° |
| 2026-04-25 22:21 | -34.97045 | -59.31965 | 17641 ft | 369 kts | 75° |
| 2026-04-25 22:21 | -34.96488 | -59.28920 | 17263 ft | 367 kts | 75° |
| 2026-04-25 22:22 | -34.95934 | -59.25890 | 16890 ft | 365 kts | 75° |
| 2026-04-25 22:22 | -34.95381 | -59.22878 | 16523 ft | 363 kts | 75° |
| 2026-04-25 22:22 | -34.94832 | -59.19883 | 16163 ft | 361 kts | 75° |
| 2026-04-25 22:22 | -34.94290 | -59.16939 | 15810 ft | 359 kts | 75° |
| 2026-04-25 22:23 | -34.93744 | -59.13972 | 15452 ft | 357 kts | 75° |
| 2026-04-25 22:23 | -34.93200 | -59.11021 | 15094 ft | 356 kts | 75° |
| 2026-04-25 22:23 | -34.92660 | -59.08090 | 14744 ft | 354 kts | 75° |
| 2026-04-25 22:23 | -34.92193 | -59.05561 | 14444 ft | 352 kts | 75° |
| 2026-04-25 22:24 | -34.91666 | -59.02722 | 13994 ft | 349 kts | 76° |
| 2026-04-25 22:24 | -34.90997 | -58.99915 | 13724 ft | 342 kts | 63° |
| 2026-04-25 22:24 | -34.89615 | -58.97614 | 13402 ft | 334 kts | 40° |
| 2026-04-25 22:24 | -34.87739 | -58.96042 | 13068 ft | 325 kts | 23° |
| 2026-04-25 22:25 | -34.85694 | -58.94906 | 12731 ft | 321 kts | 20° |
| 2026-04-25 22:25 | -34.83649 | -58.93842 | 12424 ft | 318 kts | 20° |
| 2026-04-25 22:25 | -34.81621 | -58.92777 | 12060 ft | 317 kts | 21° |
| 2026-04-25 22:25 | -34.79632 | -58.91710 | 11718 ft | 315 kts | 21° |
| 2026-04-25 22:26 | -34.77634 | -58.90627 | 11382 ft | 313 kts | 21° |
| 2026-04-25 22:26 | -34.75648 | -58.89546 | 11038 ft | 312 kts | 21° |
| 2026-04-25 22:26 | -34.73670 | -58.88472 | 10707 ft | 310 kts | 21° |
| 2026-04-25 22:26 | -34.71701 | -58.87405 | 10373 ft | 309 kts | 21° |
| 2026-04-25 22:27 | -34.69751 | -58.86347 | 10156 ft | 303 kts | 21° |
| 2026-04-25 22:27 | -34.67849 | -58.85316 | 10006 ft | 295 kts | 21° |
| 2026-04-25 22:27 | -34.65983 | -58.84305 | 9711 ft | 293 kts | 21° |
| 2026-04-25 22:27 | -34.64125 | -58.83299 | 9398 ft | 291 kts | 21° |
| 2026-04-25 22:28 | -34.62300 | -58.82312 | 9088 ft | 290 kts | 21° |
| 2026-04-25 22:28 | -34.60466 | -58.81320 | 8790 ft | 288 kts | 22° |
| 2026-04-25 22:28 | -34.58645 | -58.80336 | 8473 ft | 286 kts | 22° |
| 2026-04-25 22:28 | -34.56830 | -58.79360 | 8178 ft | 284 kts | 20° |
| 2026-04-25 22:29 | -34.54937 | -58.78780 | 7839 ft | 280 kts | 4° |
| 2026-04-25 22:29 | -34.53005 | -58.78576 | 7543 ft | 278 kts | 2° |
| 2026-04-25 22:29 | -34.51078 | -58.78386 | 7238 ft | 277 kts | 3° |
| 2026-04-25 22:30 | -34.47292 | -58.77977 | 6656 ft | 266 kts | 4° |
| 2026-04-25 22:30 | -34.45470 | -58.77765 | 6389 ft | 259 kts | 4° |
| 2026-04-25 22:30 | -34.43695 | -58.77556 | 6136 ft | 252 kts | 4° |
| 2026-04-25 22:30 | -34.43132 | -58.77490 | 6057 ft | 251 kts | 4° |
| 2026-04-25 22:31 | -34.40306 | -58.76864 | 5599 ft | 251 kts | 30° |
| 2026-04-25 22:31 | -34.39163 | -58.75313 | 5401 ft | 251 kts | 67° |
| 2026-04-25 22:31 | -34.39044 | -58.73255 | 5317 ft | 248 kts | 105° |
| 2026-04-25 22:31 | -34.39698 | -58.71289 | 5068 ft | 255 kts | 114° |
| 2026-04-25 22:32 | -34.40510 | -58.69347 | 4644 ft | 262 kts | 118° |
| 2026-04-25 22:32 | -34.41473 | -58.67467 | 4429 ft | 259 kts | 122° |
| 2026-04-25 22:32 | -34.42463 | -58.65690 | 4341 ft | 250 kts | 123° |
| 2026-04-25 22:32 | -34.43434 | -58.63970 | 4215 ft | 244 kts | 123° |
| 2026-04-25 22:33 | -34.44429 | -58.62259 | 3720 ft | 254 kts | 123° |
| 2026-04-25 22:33 | -34.45431 | -58.60496 | 3371 ft | 256 kts | 122° |
| 2026-04-25 22:33 | -34.46091 | -58.59308 | 3153 ft | 257 kts | 122° |
| 2026-04-25 22:33 | -34.47076 | -58.57529 | 2806 ft | 252 kts | 121° |
| 2026-04-25 22:34 | -34.48036 | -58.55792 | 2461 ft | 240 kts | 122° |
| 2026-04-25 22:34 | -34.48938 | -58.54167 | 2152 ft | 226 kts | 122° |
| 2026-04-25 22:34 | -34.49786 | -58.52636 | 1884 ft | 211 kts | 121° |
| 2026-04-25 22:34 | -34.50576 | -58.51211 | 1611 ft | 196 kts | 121° |
| 2026-04-25 22:35 | -34.51309 | -58.49887 | 1376 ft | 182 kts | 121° |
| 2026-04-25 22:35 | -34.51990 | -58.48659 | 1151 ft | 170 kts | 122° |
| 2026-04-25 22:35 | -34.52617 | -58.47530 | 967 ft | 152 kts | 122° |
| 2026-04-25 22:35 | -34.53181 | -58.46513 | 774 ft | 139 kts | 122° |
| 2026-04-25 22:36 | -34.53709 | -58.45560 | 645 ft | 136 kts | 124° |
| 2026-04-25 22:36 | -34.54242 | -58.44597 | 475 ft | 138 kts | 124° |
| 2026-04-25 22:36 | -34.54742 | -58.43635 | 316 ft | 132 kts | 127° |
| 2026-04-25 22:36 | -34.55252 | -58.42763 | 105 ft | 123 kts | 124° |
| 2026-04-25 22:37 | -34.55707 | -58.41960 | 22 ft | 102 kts | 124° |
| 2026-04-25 22:37 | -34.55983 | -58.41466 | 23 ft | 52 kts | 124° |
| 2026-04-25 22:37 | -34.56127 | -58.41205 | 25 ft | 37 kts | 123° |
| 2026-04-25 22:37 | -34.56186 | -58.41043 | 23 ft | 9 kts | 63° |
| 2026-04-25 22:38 | -34.56159 | -58.40999 | 25 ft | 3 kts | 51° |
| 2026-04-25 22:38 | -34.56158 | -58.40998 | 25 ft | 0 kts | 50° |
| 2026-04-25 22:38 | -34.56158 | -58.40997 | 25 ft | 0 kts | 49° |
| 2026-04-25 22:39 | -34.56141 | -58.40987 | 26 ft | 5 kts | 14° |
| 2026-04-25 22:39 | -34.56107 | -58.41009 | 25 ft | 9 kts | 316° |
| 2026-04-25 22:39 | -34.56055 | -58.41088 | 25 ft | 14 kts | 308° |
| 2026-04-25 22:39 | -34.55986 | -58.41200 | 27 ft | 17 kts | 306° |
| 2026-04-25 22:40 | -34.55920 | -58.41299 | 26 ft | 9 kts | 335° |
| 2026-04-25 22:40 | -34.55887 | -58.41294 | 23 ft | 7 kts | 20° |
| 2026-04-25 22:40 | -34.55840 | -58.41291 | 23 ft | 7 kts | 320° |
| 2026-04-25 22:40 | -34.55811 | -58.41337 | 25 ft | 7 kts | 316° |
| 2026-04-25 22:41 | -34.55771 | -58.41329 | 24 ft | 6 kts | 36° |
| 2026-04-25 22:41 | -34.55763 | -58.41322 | 25 ft | 0 kts | 35° |